createdAt,value
2018-02-10T00:00:28.037Z,31.63
2018-02-10T00:02:53.940Z,30.20
2018-02-10T00:05:19.869Z,30.43
2018-02-10T00:07:46.679Z,32.53
2018-02-10T00:10:12.628Z,29.87
2018-02-10T00:12:41.813Z,30.57
2018-02-10T00:15:07.730Z,30.92
2018-02-10T00:17:37.390Z,30.30
2018-02-10T00:20:03.294Z,30.25
2018-02-10T00:22:33.377Z,31.20
2018-02-10T00:24:59.320Z,31.25
2018-02-10T00:27:25.576Z,31.53
2018-02-10T00:29:51.494Z,29.58
2018-02-10T00:32:21.161Z,30.00
2018-02-10T00:34:47.129Z,30.05
2018-02-10T00:37:13.042Z,31.50
2018-02-10T00:39:38.954Z,31.73
2018-02-10T00:42:04.892Z,28.83
2018-02-10T00:44:32.447Z,30.37
2018-02-10T00:46:58.371Z,28.90
2018-02-10T00:49:27.667Z,30.20
2018-02-10T00:51:53.591Z,29.52
2018-02-10T00:54:23.060Z,30.20
2018-02-10T00:56:48.960Z,30.95
2018-02-10T00:59:17.962Z,28.67
2018-02-10T01:01:43.916Z,30.75
2018-02-10T01:04:11.077Z,29.07
2018-02-10T01:06:37.037Z,29.77
2018-02-10T01:09:05.564Z,27.80
2018-02-10T01:11:31.488Z,27.55
2018-02-10T01:13:57.395Z,30.00
2018-02-10T01:16:23.373Z,27.60
2018-02-10T01:18:49.318Z,30.02
2018-02-10T01:21:18.482Z,29.27
2018-02-10T01:23:44.430Z,32.20
2018-02-10T01:26:13.571Z,30.27
2018-02-10T01:28:39.485Z,31.87
2018-02-10T01:31:07.345Z,30.43
2018-02-10T01:33:33.257Z,30.15
2018-02-10T01:36:02.215Z,28.40
2018-02-10T01:38:28.167Z,28.05
2018-02-10T01:40:57.121Z,27.80
2018-02-10T01:43:23.087Z,25.85
2018-02-10T01:45:52.221Z,28.07
2018-02-10T01:48:18.160Z,27.83
2018-02-10T01:50:44.066Z,27.57
2018-02-10T01:53:09.972Z,27.73
2018-02-10T01:55:35.892Z,29.30
2018-02-10T01:58:02.893Z,28.77
2018-02-10T02:00:28.822Z,26.10
2018-02-10T02:02:58.320Z,30.33
2018-02-10T02:05:24.214Z,28.52
2018-02-10T02:07:52.175Z,28.03
2018-02-10T02:10:18.098Z,28.50
2018-02-10T02:12:47.572Z,28.90
2018-02-10T02:15:13.534Z,29.92
2018-02-10T02:17:43.324Z,27.30
2018-02-10T02:20:09.264Z,29.02
2018-02-10T02:22:36.391Z,25.77
2018-02-10T02:25:02.339Z,27.90
2018-02-10T02:27:28.289Z,28.33
2018-02-10T02:29:54.199Z,25.97
2018-02-10T02:32:20.090Z,26.97
2018-02-10T02:34:49.763Z,30.17
2018-02-10T02:37:15.700Z,27.83
2018-02-10T02:39:44.845Z,25.30
2018-02-10T02:42:10.786Z,25.70
2018-02-10T02:44:38.121Z,27.27
2018-02-10T02:47:04.039Z,25.05
2018-02-10T02:49:33.267Z,26.27
2018-02-10T02:51:59.219Z,27.13
2018-02-10T02:54:28.399Z,25.87
2018-02-10T02:56:54.324Z,28.58
2018-02-10T02:59:23.371Z,26.13
2018-02-10T03:01:49.296Z,26.23
2018-02-10T03:04:15.203Z,29.53
2018-02-10T03:06:41.139Z,26.83
2018-02-10T03:09:07.071Z,24.27
2018-02-10T03:11:33.226Z,26.55
2018-02-10T03:13:59.216Z,24.52
2018-02-10T03:16:27.917Z,23.45
2018-02-10T03:18:53.835Z,25.70
2018-02-10T03:21:23.530Z,26.60
2018-02-10T03:23:49.463Z,24.30
2018-02-10T03:26:19.243Z,23.40
2018-02-10T03:28:45.159Z,25.60
2018-02-10T03:31:12.271Z,26.37
2018-02-10T03:33:38.220Z,26.55
2018-02-10T03:36:07.231Z,26.00
2018-02-10T03:38:33.180Z,25.73
2018-02-10T03:40:59.115Z,23.37
2018-02-10T03:43:25.063Z,24.23
2018-02-10T03:45:51.017Z,24.33
2018-02-10T03:48:20.496Z,25.53
2018-02-10T03:50:47.274Z,27.35
2018-02-10T03:53:13.259Z,27.08
2018-02-10T03:55:39.231Z,24.48
2018-02-10T03:58:08.099Z,25.30
2018-02-10T04:00:34.004Z,27.65
2018-02-10T04:03:03.384Z,26.70
2018-02-10T04:05:29.325Z,27.55
2018-02-10T04:07:58.802Z,27.93
2018-02-10T04:10:24.716Z,26.60
2018-02-10T04:12:53.846Z,24.63
2018-02-10T04:15:20.312Z,26.33
2018-02-10T04:17:46.231Z,25.52
2018-02-10T04:20:12.145Z,26.07
2018-02-10T04:22:38.052Z,25.40
2018-02-10T04:25:04.028Z,24.33
2018-02-10T04:27:29.926Z,24.77
2018-02-10T04:29:58.714Z,24.10
2018-02-10T04:32:24.662Z,25.37
2018-02-10T04:34:53.416Z,23.30
2018-02-10T04:37:19.364Z,23.77
2018-02-10T04:39:49.137Z,25.10
2018-02-10T04:42:15.873Z,23.70
2018-02-10T04:44:43.334Z,22.80
2018-02-10T04:47:09.260Z,25.00
2018-02-10T04:49:38.258Z,22.33
2018-02-10T04:52:04.197Z,23.75
2018-02-10T04:54:30.111Z,27.30
2018-02-10T04:56:56.047Z,23.43
2018-02-10T04:59:21.966Z,24.77
2018-02-10T05:01:49.831Z,25.37
2018-02-10T05:04:15.738Z,22.73
2018-02-10T05:06:44.701Z,23.60
2018-02-10T05:09:10.653Z,26.10
2018-02-10T05:11:40.464Z,26.47
2018-02-10T05:14:06.385Z,23.75
2018-02-10T05:16:33.545Z,26.17
2018-02-10T05:18:59.468Z,25.23
2018-02-10T05:21:28.232Z,23.70
2018-02-10T05:23:54.160Z,26.05
2018-02-10T05:26:23.724Z,24.87
2018-02-10T05:28:49.666Z,25.98
2018-02-10T05:31:15.590Z,26.93
2018-02-10T05:33:41.515Z,24.20
2018-02-10T05:36:07.431Z,27.50
2018-02-10T05:38:34.615Z,23.33
2018-02-10T05:41:00.550Z,23.15
2018-02-10T05:43:29.359Z,27.00
2018-02-10T05:45:55.302Z,26.42
2018-02-10T05:48:24.380Z,24.80
2018-02-10T05:50:50.295Z,23.65
2018-02-10T05:53:19.439Z,26.47
2018-02-10T05:55:45.380Z,23.85
2018-02-10T05:58:14.688Z,23.97
2018-02-10T06:00:40.629Z,23.90
2018-02-10T06:03:09.682Z,24.70
2018-02-10T06:05:35.598Z,24.50
2018-02-10T06:08:01.520Z,25.53
2018-02-10T06:10:27.446Z,22.63
2018-02-10T06:12:53.355Z,22.90
2018-02-10T06:15:19.917Z,22.80
2018-02-10T06:17:45.851Z,24.48
2018-02-10T06:20:15.285Z,24.40
2018-02-10T06:22:41.213Z,23.20
2018-02-10T06:25:10.259Z,24.10
2018-02-10T06:27:36.209Z,24.73
2018-02-10T06:30:05.283Z,26.13
2018-02-10T06:32:31.252Z,25.37
2018-02-10T06:35:00.328Z,26.73
2018-02-10T06:37:26.256Z,26.65
2018-02-10T06:39:53.565Z,25.37
2018-02-10T06:42:19.474Z,26.37
2018-02-10T06:44:45.384Z,30.97
2018-02-10T06:47:11.317Z,28.57
2018-02-10T06:49:37.221Z,25.97
2018-02-10T06:52:06.748Z,24.37
2018-02-10T06:54:32.672Z,21.45
2018-02-10T06:57:00.311Z,20.00
2018-02-10T06:59:26.256Z,22.62
2018-02-10T07:01:55.382Z,25.70
2018-02-10T07:04:21.302Z,24.02
2018-02-10T07:06:50.586Z,24.50
2018-02-10T07:09:16.525Z,31.50
2018-02-10T07:11:44.156Z,24.90
2018-02-10T07:14:10.087Z,21.58
2018-02-10T07:16:38.989Z,21.80
2018-02-10T07:19:04.919Z,23.23
2018-02-10T07:21:30.860Z,20.40
2018-02-10T07:23:57.325Z,21.10
2018-02-10T07:26:23.275Z,22.55
2018-02-10T07:28:50.534Z,22.53
2018-02-10T07:31:16.452Z,26.00
2018-02-10T07:33:45.641Z,25.30
2018-02-10T07:36:11.549Z,28.08
2018-02-10T07:38:40.765Z,35.23
2018-02-10T07:41:06.721Z,27.58
2018-02-10T07:43:36.045Z,27.57
2018-02-10T07:46:01.998Z,30.80
2018-02-10T07:48:29.235Z,30.80
2018-02-10T07:50:55.163Z,29.33
2018-02-10T07:53:23.984Z,28.10
2018-02-10T07:55:49.937Z,31.75
2018-02-10T07:58:15.889Z,30.07
2018-02-10T08:00:42.105Z,28.23
2018-02-10T08:03:08.055Z,28.52
2018-02-10T08:05:35.688Z,28.73
2018-02-10T08:08:01.604Z,29.23
2018-02-10T08:10:31.448Z,26.87
2018-02-10T08:12:57.372Z,28.25
2018-02-10T08:15:26.583Z,30.23
2018-02-10T08:17:52.497Z,28.77
2018-02-10T08:20:21.606Z,27.27
2018-02-10T08:22:47.563Z,27.08
2018-02-10T08:25:16.782Z,26.43
2018-02-10T08:27:42.716Z,29.00
2018-02-10T08:30:09.827Z,27.70
2018-02-10T08:32:35.784Z,29.08
2018-02-10T08:35:01.687Z,28.43
2018-02-10T08:37:27.613Z,29.30
2018-02-10T08:39:53.508Z,28.87
2018-02-10T08:42:21.195Z,27.70
2018-02-10T08:44:47.153Z,26.00
2018-02-10T08:47:16.157Z,28.80
2018-02-10T08:49:42.092Z,27.92
2018-02-10T08:52:11.284Z,28.90
2018-02-10T08:54:37.225Z,28.17
2018-02-10T08:57:06.843Z,28.50
2018-02-10T08:59:32.765Z,30.60
2018-02-10T09:02:00.113Z,28.27
2018-02-10T09:04:26.080Z,23.87
2018-02-10T09:06:55.370Z,25.30
2018-02-10T09:09:21.286Z,25.25
2018-02-10T09:11:47.259Z,25.73
2018-02-10T09:14:13.189Z,24.67
2018-02-10T09:16:39.167Z,24.50
2018-02-10T09:19:06.569Z,24.35
2018-02-10T09:21:32.540Z,24.27
2018-02-10T09:24:01.661Z,21.40
2018-02-10T09:26:27.590Z,25.70
2018-02-10T09:28:57.469Z,26.23
2018-02-10T09:31:23.422Z,24.92
2018-02-10T09:33:50.536Z,23.17
2018-02-10T09:36:16.470Z,25.10
2018-02-10T09:38:46.197Z,24.50
2018-02-10T09:41:12.108Z,23.00
2018-02-10T09:43:41.654Z,20.23
2018-02-10T09:46:07.567Z,21.95
2018-02-10T09:48:33.488Z,20.53
2018-02-10T09:50:59.414Z,20.20
2018-02-10T09:53:41.307Z,22.70
2018-02-10T09:56:07.245Z,20.45
2018-02-10T09:58:33.176Z,19.80
2018-02-10T10:00:59.095Z,18.93
2018-02-10T10:03:25.081Z,18.60
2018-02-10T10:05:50.991Z,18.97
2018-02-10T10:08:28.312Z,17.87
2018-02-10T10:10:54.248Z,16.45
2018-02-10T10:13:20.158Z,17.93
2018-02-10T10:15:46.099Z,15.67
2018-02-10T10:18:12.054Z,13.77
2018-02-10T10:20:37.990Z,14.60
2018-02-10T10:23:03.934Z,14.27
2018-02-10T10:25:29.858Z,14.17
2018-02-10T10:27:55.792Z,13.20
2018-02-10T10:30:21.708Z,11.63
2018-02-10T10:32:47.624Z,13.10
2018-02-10T10:35:13.547Z,14.10
2018-02-10T10:37:39.471Z,12.77
2018-02-10T10:40:05.400Z,14.40
2018-02-10T10:42:31.338Z,17.50
2018-02-10T10:44:57.233Z,15.17
2018-02-10T10:47:23.131Z,14.60
2018-02-10T10:49:49.060Z,15.90
2018-02-10T10:52:16.721Z,11.10
2018-02-10T10:54:42.669Z,12.27
2018-02-10T10:57:11.724Z,12.77
2018-02-10T10:59:37.643Z,13.07
2018-02-10T11:02:03.590Z,12.80
2018-02-10T11:04:29.502Z,12.47
2018-02-10T11:06:55.439Z,12.67
2018-02-10T11:09:22.332Z,14.40
2018-02-10T11:11:48.290Z,14.57
2018-02-10T11:14:17.640Z,12.90
2018-02-10T11:16:43.555Z,13.88
2018-02-10T11:19:13.517Z,13.60
2018-02-10T11:21:39.435Z,13.20
2018-02-10T11:24:07.240Z,11.87
2018-02-10T11:26:33.155Z,12.50
2018-02-10T11:29:02.337Z,12.80
2018-02-10T11:31:28.265Z,14.63
2018-02-10T11:33:57.554Z,14.23
2018-02-10T11:36:23.470Z,13.18
2018-02-10T11:38:49.420Z,13.47
2018-02-10T11:41:15.371Z,11.10
2018-02-10T11:43:41.284Z,11.57
2018-02-10T11:46:07.650Z,11.17
2018-02-10T11:48:33.556Z,11.25
2018-02-10T11:51:02.409Z,11.73
2018-02-10T11:53:28.348Z,9.88
2018-02-10T11:55:57.149Z,11.87
2018-02-10T11:58:23.092Z,9.68
2018-02-10T12:00:52.074Z,10.83
2018-02-10T12:03:17.996Z,9.95
2018-02-10T12:05:47.328Z,10.63
2018-02-10T12:08:13.262Z,9.40
2018-02-10T12:10:42.680Z,10.40
2018-02-10T12:13:08.570Z,8.07
2018-02-10T12:15:34.488Z,9.47
2018-02-10T12:18:00.426Z,8.37
2018-02-10T12:20:26.377Z,7.70
2018-02-10T12:22:53.634Z,8.27
2018-02-10T12:25:19.577Z,6.95
2018-02-10T12:27:48.772Z,7.70
2018-02-10T12:30:14.721Z,7.10
2018-02-10T12:32:43.770Z,6.77
2018-02-10T12:35:09.715Z,8.43
2018-02-10T12:37:37.168Z,8.43
2018-02-10T12:40:03.133Z,8.02
2018-02-10T12:42:31.901Z,7.30
2018-02-10T12:44:57.808Z,6.62
2018-02-10T12:47:27.285Z,7.60
2018-02-10T12:49:53.229Z,7.85
2018-02-10T12:52:19.152Z,6.77
2018-02-10T12:54:45.068Z,7.20
2018-02-10T12:57:10.996Z,7.20
2018-02-10T12:59:38.264Z,6.40
2018-02-10T13:02:04.208Z,7.05
2018-02-10T13:04:33.128Z,7.60
2018-02-10T13:06:59.073Z,6.82
2018-02-10T13:09:28.205Z,9.02
2018-02-10T13:11:54.112Z,7.87
2018-02-10T13:14:23.383Z,8.67
2018-02-10T13:16:49.300Z,8.85
2018-02-10T13:19:18.474Z,8.83
2018-02-10T13:21:44.397Z,9.02
2018-02-10T13:24:13.586Z,8.93
2018-02-10T13:26:39.532Z,10.10
2018-02-10T13:29:05.485Z,10.07
2018-02-10T13:31:31.435Z,9.33
2018-02-10T13:33:57.383Z,10.30
2018-02-10T13:36:23.509Z,8.23
2018-02-10T13:38:49.435Z,9.98
2018-02-10T13:41:18.387Z,8.30
2018-02-10T13:43:44.292Z,8.85
2018-02-10T13:46:13.068Z,8.10
2018-02-10T13:48:39.021Z,7.50
2018-02-10T13:51:08.287Z,8.17
2018-02-10T13:53:34.211Z,9.38
2018-02-10T13:56:03.309Z,11.40
2018-02-10T13:58:29.222Z,11.25
2018-02-10T14:00:58.705Z,12.17
2018-02-10T14:03:24.660Z,12.30
2018-02-10T14:05:50.566Z,11.73
2018-02-10T14:08:16.504Z,12.13
2018-02-10T14:10:42.432Z,12.60
2018-02-10T14:13:09.701Z,11.60
2018-02-10T14:15:35.627Z,10.43
2018-02-10T14:18:03.510Z,10.43
2018-02-10T14:20:29.422Z,9.95
2018-02-10T14:22:58.331Z,10.03
2018-02-10T14:25:24.267Z,10.43
2018-02-10T14:27:53.524Z,10.03
2018-02-10T14:30:19.486Z,11.32
2018-02-10T14:32:49.012Z,10.30
2018-02-10T14:35:14.938Z,11.93
2018-02-10T14:37:44.017Z,9.60
2018-02-10T14:40:09.937Z,10.43
2018-02-10T14:42:35.869Z,11.20
2018-02-10T14:45:01.781Z,10.73
2018-02-10T14:47:27.705Z,10.13
2018-02-10T14:49:54.135Z,9.40
2018-02-10T14:52:20.068Z,10.35
2018-02-10T14:54:48.931Z,11.67
2018-02-10T14:57:14.864Z,11.88
2018-02-10T14:59:44.337Z,10.80
2018-02-10T15:02:10.296Z,10.75
2018-02-10T15:04:39.545Z,11.77
2018-02-10T15:07:05.480Z,12.57
2018-02-10T15:09:33.034Z,11.47
2018-02-10T15:11:59.024Z,11.45
2018-02-10T15:14:28.441Z,10.82
2018-02-10T15:16:54.422Z,12.75
2018-02-10T15:19:20.377Z,10.87
2018-02-10T15:21:46.293Z,13.30
2018-02-10T15:24:12.255Z,12.80
2018-02-10T15:26:39.331Z,13.50
2018-02-10T15:29:05.262Z,13.20
2018-02-10T15:31:43.652Z,14.10
2018-02-10T15:37:07.615Z,13.98
2018-02-10T15:39:33.523Z,13.15
2018-02-10T15:41:59.465Z,14.50
2018-02-10T15:44:25.403Z,14.70
2018-02-10T15:46:51.300Z,14.07
2018-02-10T15:49:17.232Z,59.43
2018-02-10T15:51:43.156Z,19.63
2018-02-10T15:54:09.077Z,12.70
2018-02-10T15:56:35.000Z,14.93
2018-02-10T15:59:00.939Z,13.93
2018-02-10T16:01:26.892Z,14.67
2018-02-10T16:03:52.826Z,12.37
2018-02-10T16:06:18.742Z,13.33
2018-02-10T16:08:44.675Z,14.00
2018-02-10T16:11:10.613Z,13.87
2018-02-10T16:13:36.546Z,13.23
2018-02-10T16:16:02.458Z,11.73
2018-02-10T16:18:28.386Z,11.80
2018-02-10T16:20:54.348Z,12.70
2018-02-10T16:23:20.276Z,11.60
2018-02-10T16:25:46.188Z,11.00
2018-02-10T16:28:12.096Z,11.00
2018-02-10T16:30:38.048Z,12.90
2018-02-10T16:33:03.959Z,12.20
2018-02-10T16:35:29.893Z,13.03
2018-02-10T16:37:55.823Z,12.03
2018-02-10T16:40:21.723Z,12.37
2018-02-10T16:42:47.656Z,13.70
2018-02-10T16:45:13.568Z,12.33
2018-02-10T16:47:39.502Z,12.63
2018-02-10T16:50:05.411Z,12.00
2018-02-10T16:52:31.341Z,12.73
2018-02-10T16:54:57.265Z,11.93
2018-02-10T16:57:23.193Z,12.83
2018-02-10T16:59:49.193Z,11.80
2018-02-10T17:02:15.128Z,12.30
2018-02-10T17:04:43.957Z,11.97
2018-02-10T17:07:09.912Z,11.82
2018-02-10T17:09:35.806Z,10.60
2018-02-10T17:12:01.733Z,12.00
2018-02-10T17:14:27.681Z,9.63
2018-02-10T17:16:55.225Z,11.40
2018-02-10T17:19:21.152Z,10.10
2018-02-10T17:21:50.214Z,10.23
2018-02-10T17:24:16.153Z,8.90
2018-02-10T17:26:46.058Z,11.77
2018-02-10T17:29:11.964Z,8.93
2018-02-10T17:31:41.364Z,10.37
2018-02-10T17:34:07.266Z,10.30
2018-02-10T17:36:34.606Z,10.50
2018-02-10T17:39:00.581Z,11.32
2018-02-10T17:41:29.841Z,12.35
2018-02-10T17:43:55.779Z,11.95
2018-02-10T17:46:21.712Z,11.17
2018-02-10T17:48:47.651Z,12.50
2018-02-10T17:51:13.558Z,12.40
2018-02-10T17:53:41.420Z,11.37
2018-02-10T17:56:07.331Z,14.65
2018-02-10T17:58:36.784Z,15.90
2018-02-10T18:01:02.727Z,12.55
2018-02-10T18:03:31.853Z,11.93
2018-02-10T18:05:57.762Z,15.38
2018-02-10T18:08:24.815Z,12.80
2018-02-10T18:10:50.739Z,12.57
2018-02-10T18:13:19.699Z,11.80
2018-02-10T18:15:45.643Z,11.10
2018-02-10T18:18:14.493Z,13.10
2018-02-10T18:20:40.433Z,13.00
2018-02-10T18:23:06.356Z,11.70
2018-02-10T18:25:32.289Z,10.90
2018-02-10T18:27:58.231Z,9.63
2018-02-10T18:30:27.791Z,9.13
2018-02-10T18:32:53.755Z,7.35
2018-02-10T18:35:21.067Z,9.88
2018-02-10T18:37:47.005Z,7.68
2018-02-10T18:40:16.806Z,8.27
2018-02-10T18:42:42.744Z,7.60
2018-02-10T18:45:10.281Z,7.50
2018-02-10T18:47:36.203Z,7.00
2018-02-10T18:50:05.137Z,7.53
2018-02-10T18:52:31.109Z,6.65
2018-02-10T18:55:00.977Z,6.40
2018-02-10T18:57:26.907Z,6.82
2018-02-10T18:59:52.821Z,7.13
2018-02-10T19:02:18.764Z,7.00
2018-02-10T19:04:44.693Z,8.23
2018-02-10T19:07:11.832Z,7.87
2018-02-10T19:09:37.789Z,10.35
2018-02-10T19:12:07.393Z,9.37
2018-02-10T19:14:33.324Z,9.18
2018-02-10T19:17:02.480Z,8.13
2018-02-10T19:19:28.553Z,6.53
2018-02-10T19:21:55.597Z,7.82
2018-02-10T19:24:21.541Z,7.53
2018-02-10T19:26:50.531Z,8.60
2018-02-10T19:29:16.473Z,7.68
2018-02-10T19:31:46.398Z,7.70
2018-02-10T19:34:12.346Z,6.57
2018-02-10T19:36:38.293Z,7.40
2018-02-10T19:39:04.231Z,8.20
2018-02-10T19:41:30.156Z,8.33
2018-02-10T19:43:56.853Z,9.20
2018-02-10T19:46:22.782Z,10.57
2018-02-10T19:48:51.514Z,10.73
2018-02-10T19:51:17.459Z,9.93
2018-02-10T19:53:46.884Z,8.63
2018-02-10T19:56:12.820Z,8.40
2018-02-10T19:58:42.686Z,8.67
2018-02-10T20:01:08.621Z,8.38
2018-02-10T20:03:35.954Z,8.77
2018-02-10T20:06:01.905Z,7.93
2018-02-10T20:08:31.346Z,7.83
2018-02-10T20:10:57.343Z,8.20
2018-02-10T20:13:23.285Z,7.55
2018-02-10T20:15:49.221Z,7.70
2018-02-10T20:18:15.153Z,7.37
2018-02-10T20:20:42.400Z,8.43
2018-02-10T20:23:08.361Z,10.57
2018-02-10T20:25:37.592Z,7.90
2018-02-10T20:28:03.518Z,11.77
2018-02-10T20:30:32.901Z,9.60
2018-02-10T20:32:58.842Z,18.33
2018-02-10T20:35:26.413Z,10.77
2018-02-10T20:37:52.326Z,10.38
2018-02-10T20:40:22.088Z,12.27
2018-02-10T20:42:48.026Z,12.90
2018-02-10T20:45:16.960Z,8.90
2018-02-10T20:47:42.892Z,9.02
2018-02-10T20:50:08.837Z,7.10
2018-02-10T20:52:34.987Z,7.50
2018-02-10T20:55:00.927Z,9.52
2018-02-10T20:57:27.268Z,12.80
2018-02-10T20:59:53.209Z,10.57
2018-02-10T21:02:22.026Z,9.97
2018-02-10T21:04:47.975Z,8.98
2018-02-10T21:07:17.101Z,11.63
2018-02-10T21:09:43.057Z,7.22
2018-02-10T21:12:12.419Z,8.83
2018-02-10T21:14:38.350Z,6.10
2018-02-10T21:17:07.818Z,5.70
2018-02-10T21:19:33.763Z,5.90
2018-02-10T21:22:01.492Z,6.53
2018-02-10T21:24:27.660Z,5.18
2018-02-10T21:26:53.579Z,5.37
2018-02-10T21:29:19.545Z,4.83
2018-02-10T21:31:45.479Z,4.07
2018-02-10T21:34:12.604Z,4.63
2018-02-10T21:36:38.533Z,5.10
2018-02-10T21:39:07.408Z,4.47
2018-02-10T21:41:33.321Z,4.45
2018-02-10T21:44:02.180Z,4.47
2018-02-10T21:46:28.122Z,4.00
2018-02-10T21:48:56.961Z,5.10
2018-02-10T21:51:22.904Z,5.32
2018-02-10T21:53:52.138Z,5.80
2018-02-10T21:56:18.060Z,4.95
2018-02-10T21:58:47.577Z,5.10
2018-02-10T22:01:13.512Z,4.82
2018-02-10T22:03:39.468Z,7.90
2018-02-10T22:06:05.457Z,6.30
2018-02-10T22:08:31.378Z,4.93
2018-02-10T22:10:57.879Z,4.60
2018-02-10T22:13:23.774Z,4.40
2018-02-10T22:15:53.232Z,5.37
2018-02-10T22:18:19.181Z,5.47
2018-02-10T22:20:48.840Z,5.07
2018-02-10T22:23:14.739Z,4.28
2018-02-10T22:25:42.708Z,5.43
2018-02-10T22:28:08.650Z,5.60
2018-02-10T22:30:38.188Z,5.97
2018-02-10T22:33:04.115Z,5.95
2018-02-10T22:35:31.431Z,6.23
2018-02-10T22:37:57.381Z,5.65
2018-02-10T22:40:23.324Z,4.77
2018-02-10T22:42:49.260Z,5.23
2018-02-10T22:45:15.201Z,4.87
2018-02-10T22:47:44.541Z,4.87
2018-02-10T22:50:10.489Z,4.85
2018-02-10T22:52:39.815Z,5.77
2018-02-10T22:55:05.772Z,5.65
2018-02-10T22:57:32.905Z,6.40
2018-02-10T22:59:58.820Z,5.97
2018-02-10T23:02:28.354Z,6.87
2018-02-10T23:04:54.259Z,6.22
2018-02-10T23:07:23.609Z,6.17
2018-02-10T23:09:49.544Z,6.60
2018-02-10T23:12:17.368Z,6.00
2018-02-10T23:14:43.313Z,6.22
2018-02-10T23:17:09.236Z,7.10
2018-02-10T23:19:35.169Z,6.83
2018-02-10T23:22:01.102Z,7.00
2018-02-10T23:24:28.645Z,6.33
2018-02-10T23:26:54.572Z,7.32
2018-02-10T23:29:23.721Z,7.67
2018-02-10T23:31:49.657Z,7.47
2018-02-10T23:34:18.840Z,7.73
2018-02-10T23:36:44.775Z,10.02
2018-02-10T23:39:13.968Z,7.13
2018-02-10T23:41:39.893Z,6.40
2018-02-10T23:44:07.418Z,7.47
2018-02-10T23:46:33.366Z,7.78
2018-02-10T23:49:02.092Z,7.20
2018-02-10T23:51:28.057Z,7.32
2018-02-10T23:53:53.984Z,7.40
2018-02-10T23:56:19.923Z,9.10
2018-02-10T23:58:45.860Z,7.73
